sensor_id;sensor_type;location;lat;lon;timestamp;pressure;altitude;pressure_sealevel;temperature;humidity
10176;BME280;18221;38.704;0.152;2023-10-19T00:12:26;97958.38;;;28.39;25.45
10176;BME280;18221;38.704;0.152;2023-10-19T00:14:54;97940.88;;;28.40;25.58
10176;BME280;18221;38.704;0.152;2023-10-19T00:17:21;97928.88;;;28.36;24.89
10176;BME280;18221;38.704;0.152;2023-10-19T00:19:49;97925.66;;;28.29;24.96
10176;BME280;18221;38.704;0.152;2023-10-19T00:22:24;97925.63;;;28.34;25.14
10176;BME280;18221;38.704;0.152;2023-10-19T00:24:52;97911.19;;;28.28;24.80
10176;BME280;18221;38.704;0.152;2023-10-19T00:39:34;97890.22;;;28.08;24.34
10176;BME280;18221;38.704;0.152;2023-10-19T00:42:11;97900.56;;;28.16;24.33
10176;BME280;18221;38.704;0.152;2023-10-19T00:44:41;97885.22;;;28.31;23.93
10176;BME280;18221;38.704;0.152;2023-10-19T00:47:15;97886.06;;;28.26;23.78
10176;BME280;18221;38.704;0.152;2023-10-19T00:49:46;97897.78;;;28.27;23.66
10176;BME280;18221;38.704;0.152;2023-10-19T00:52:15;97886.88;;;28.27;23.68
10176;BME280;18221;38.704;0.152;2023-10-19T00:54:48;97902.16;;;28.28;24.10
10176;BME280;18221;38.704;0.152;2023-10-19T00:57:21;97888.19;;;28.34;24.17
10176;BME280;18221;38.704;0.152;2023-10-19T01:00:01;97882.75;;;28.29;23.90
10176;BME280;18221;38.704;0.152;2023-10-19T01:02:37;97883.56;;;28.35;23.73
10176;BME280;18221;38.704;0.152;2023-10-19T01:05:10;97864.47;;;28.30;23.21
10176;BME280;18221;38.704;0.152;2023-10-19T01:07:39;97854.41;;;28.25;24.05
10176;BME280;18221;38.704;0.152;2023-10-19T01:10:09;97851.38;;;28.27;23.53
10176;BME280;18221;38.704;0.152;2023-10-19T01:12:39;97853.56;;;28.30;23.22
10176;BME280;18221;38.704;0.152;2023-10-19T01:15:09;97853.03;;;28.28;23.29
10176;BME280;18221;38.704;0.152;2023-10-19T01:17:42;97860.66;;;28.31;23.54
10176;BME280;18221;38.704;0.152;2023-10-19T01:20:14;97863.91;;;28.33;23.52
10176;BME280;18221;38.704;0.152;2023-10-19T01:22:55;97860.88;;;28.34;23.67
10176;BME280;18221;38.704;0.152;2023-10-19T01:25:49;97856.78;;;28.37;23.48
10176;BME280;18221;38.704;0.152;2023-10-19T01:28:27;97858.16;;;28.39;23.68
10176;BME280;18221;38.704;0.152;2023-10-19T01:31:09;97852.69;;;28.39;23.92
10176;BME280;18221;38.704;0.152;2023-10-19T01:33:41;97846.38;;;28.44;23.80
10176;BME280;18221;38.704;0.152;2023-10-19T01:36:13;97834.94;;;28.42;25.34
10176;BME280;18221;38.704;0.152;2023-10-19T01:38:54;97828.13;;;28.39;28.13
10176;BME280;18221;38.704;0.152;2023-10-19T01:41:25;97828.41;;;28.33;27.94
10176;BME280;18221;38.704;0.152;2023-10-19T01:43:53;97826.50;;;28.33;28.37
10176;BME280;18221;38.704;0.152;2023-10-19T01:46:23;97822.69;;;28.29;28.70
10176;BME280;18221;38.704;0.152;2023-10-19T01:48:53;97824.38;;;28.25;29.62
10176;BME280;18221;38.704;0.152;2023-10-19T01:51:24;97821.91;;;28.24;29.26
10176;BME280;18221;38.704;0.152;2023-10-19T01:53:53;97814.06;;;28.12;29.58
10176;BME280;18221;38.704;0.152;2023-10-19T01:56:23;97818.19;;;28.09;29.45
10176;BME280;18221;38.704;0.152;2023-10-19T01:58:50;97814.91;;;28.12;29.07
10176;BME280;18221;38.704;0.152;2023-10-19T02:01:21;97820.94;;;27.99;28.94
10176;BME280;18221;38.704;0.152;2023-10-19T02:03:57;97802.41;;;27.91;27.78
10176;BME280;18221;38.704;0.152;2023-10-19T02:06:27;97798.84;;;27.96;27.58
10176;BME280;18221;38.704;0.152;2023-10-19T02:09:04;97799.13;;;27.94;26.43
10176;BME280;18221;38.704;0.152;2023-10-19T02:11:44;97802.13;;;27.93;26.64
10176;BME280;18221;38.704;0.152;2023-10-19T02:14:13;97803.53;;;27.85;26.73
10176;BME280;18221;38.704;0.152;2023-10-19T02:16:42;97793.66;;;27.94;26.48
10176;BME280;18221;38.704;0.152;2023-10-19T02:19:10;97783.84;;;27.93;26.64
10176;BME280;18221;38.704;0.152;2023-10-19T02:21:38;97788.25;;;27.89;26.48
10176;BME280;18221;38.704;0.152;2023-10-19T02:24:09;97794.25;;;27.86;26.25
10176;BME280;18221;38.704;0.152;2023-10-19T02:26:42;97787.50;;;27.74;26.39
10176;BME280;18221;38.704;0.152;2023-10-19T02:29:09;97792.16;;;27.68;26.26
10176;BME280;18221;38.704;0.152;2023-10-19T02:31:40;97784.19;;;27.72;26.47
10176;BME280;18221;38.704;0.152;2023-10-19T02:34:08;97776.59;;;27.69;26.70
10176;BME280;18221;38.704;0.152;2023-10-19T02:36:37;97789.69;;;27.62;27.39
10176;BME280;18221;38.704;0.152;2023-10-19T02:39:08;97772.78;;;27.65;27.70
10176;BME280;18221;38.704;0.152;2023-10-19T02:41:39;97783.97;;;27.68;27.70
10176;BME280;18221;38.704;0.152;2023-10-19T02:44:09;97781.50;;;27.67;27.76
10176;BME280;18221;38.704;0.152;2023-10-19T02:46:47;97787.19;;;27.75;27.74
10176;BME280;18221;38.704;0.152;2023-10-19T02:49:17;97791.84;;;27.70;28.03
10176;BME280;18221;38.704;0.152;2023-10-19T02:51:47;97805.50;;;27.65;28.00
10176;BME280;18221;38.704;0.152;2023-10-19T02:54:17;97787.22;;;27.70;27.73
10176;BME280;18221;38.704;0.152;2023-10-19T02:56:46;97781.53;;;27.56;27.99
10176;BME280;18221;38.704;0.152;2023-10-19T02:59:15;97764.09;;;27.58;27.83
10176;BME280;18221;38.704;0.152;2023-10-19T03:01:49;97775.56;;;27.54;27.57
10176;BME280;18221;38.704;0.152;2023-10-19T03:04:16;97770.38;;;27.48;27.63
10176;BME280;18221;38.704;0.152;2023-10-19T03:06:44;97754.59;;;27.45;27.46
10176;BME280;18221;38.704;0.152;2023-10-19T03:09:11;97752.69;;;27.50;27.68
10176;BME280;18221;38.704;0.152;2023-10-19T03:11:44;97751.53;;;27.56;27.30
10176;BME280;18221;38.704;0.152;2023-10-19T03:14:11;97751.28;;;27.58;27.07
10176;BME280;18221;38.704;0.152;2023-10-19T03:16:40;97753.19;;;27.58;27.10
10176;BME280;18221;38.704;0.152;2023-10-19T03:19:08;97742.00;;;27.54;27.25
10176;BME280;18221;38.704;0.152;2023-10-19T03:21:36;97751.31;;;27.53;27.09
10176;BME280;18221;38.704;0.152;2023-10-19T03:24:09;97743.69;;;27.50;27.34
10176;BME280;18221;38.704;0.152;2023-10-19T03:26:43;97735.50;;;27.45;27.24
10176;BME280;18221;38.704;0.152;2023-10-19T03:29:14;97734.97;;;27.43;27.34
10176;BME280;18221;38.704;0.152;2023-10-19T03:31:44;97734.97;;;27.43;27.18
10176;BME280;18221;38.704;0.152;2023-10-19T03:34:14;97736.06;;;27.42;27.28
10176;BME280;18221;38.704;0.152;2023-10-19T03:36:43;97724.84;;;27.38;27.49
10176;BME280;18221;38.704;0.152;2023-10-19T03:39:11;97724.84;;;27.38;27.43
10176;BME280;18221;38.704;0.152;2023-10-19T03:41:40;97722.69;;;27.35;27.65
10176;BME280;18221;38.704;0.152;2023-10-19T03:44:12;97722.44;;;27.32;28.15
10176;BME280;18221;38.704;0.152;2023-10-19T03:46:45;97739.88;;;27.31;28.34
10176;BME280;18221;38.704;0.152;2023-10-19T03:49:26;97749.16;;;27.35;28.71
10176;BME280;18221;38.704;0.152;2023-10-19T03:52:00;97729.78;;;27.36;28.54
10176;BME280;18221;38.704;0.152;2023-10-19T03:54:47;97736.59;;;27.34;28.75
10176;BME280;18221;38.704;0.152;2023-10-19T03:57:16;97732.81;;;27.35;28.88
10176;BME280;18221;38.704;0.152;2023-10-19T03:59:51;97740.41;;;27.38;28.78
10176;BME280;18221;38.704;0.152;2023-10-19T04:02:22;97722.97;;;27.39;28.63
10176;BME280;18221;38.704;0.152;2023-10-19T04:04:50;97716.69;;;27.33;28.97
10176;BME280;18221;38.704;0.152;2023-10-19T04:07:21;97715.34;;;27.31;28.77
10176;BME280;18221;38.704;0.152;2023-10-19T04:09:53;97716.44;;;27.30;29.42
10176;BME280;18221;38.704;0.152;2023-10-19T04:12:47;97718.09;;;27.26;29.63
10176;BME280;18221;38.704;0.152;2023-10-19T04:15:16;97719.75;;;27.27;30.02
10176;BME280;18221;38.704;0.152;2023-10-19T04:17:46;97713.19;;;27.23;30.15
10176;BME280;18221;38.704;0.152;2023-10-19T04:20:17;97701.75;;;27.26;29.99
10176;BME280;18221;38.704;0.152;2023-10-19T04:23:01;97690.31;;;27.24;30.11
10176;BME280;18221;38.704;0.152;2023-10-19T04:25:36;97695.50;;;27.20;30.24
10176;BME280;18221;38.704;0.152;2023-10-19T04:28:05;97690.88;;;27.16;30.26
10176;BME280;18221;38.704;0.152;2023-10-19T04:30:35;97703.69;;;27.15;30.26
10176;BME280;18221;38.704;0.152;2023-10-19T04:33:04;97718.41;;;27.09;30.53
10176;BME280;18221;38.704;0.152;2023-10-19T04:35:35;97717.34;;;27.05;30.48
10176;BME280;18221;38.704;0.152;2023-10-19T04:38:05;97722.00;;;26.84;30.79
10176;BME280;18221;38.704;0.152;2023-10-19T04:40:34;97730.19;;;26.84;31.08
10176;BME280;18221;38.704;0.152;2023-10-19T04:43:04;97729.34;;;26.94;30.91
10176;BME280;18221;38.704;0.152;2023-10-19T04:45:32;97725.78;;;26.98;31.21
10176;BME280;18221;38.704;0.152;2023-10-19T04:48:04;97732.59;;;27.01;30.95
10176;BME280;18221;38.704;0.152;2023-10-19T04:50:32;97729.09;;;26.95;31.23
10176;BME280;18221;38.704;0.152;2023-10-19T04:53:01;97732.59;;;26.91;31.54
10176;BME280;18221;38.704;0.152;2023-10-19T04:55:30;97732.88;;;27.00;31.42
10176;BME280;18221;38.704;0.152;2023-10-19T04:57:58;97724.16;;;26.98;31.36
10176;BME280;18221;38.704;0.152;2023-10-19T05:00:26;97722.00;;;26.94;31.34
10176;BME280;18221;38.704;0.152;2023-10-19T05:02:54;97714.66;;;26.80;31.61
10176;BME280;18221;38.704;0.152;2023-10-19T05:05:24;97708.94;;;26.81;31.69
10176;BME280;18221;38.704;0.152;2023-10-19T05:07:51;97712.47;;;26.87;31.74
10176;BME280;18221;38.704;0.152;2023-10-19T05:10:19;97715.72;;;26.89;31.82
10176;BME280;18221;38.704;0.152;2023-10-19T05:12:48;97713.84;;;26.89;32.36
10176;BME280;18221;38.704;0.152;2023-10-19T05:15:16;97724.19;;;26.92;32.29
10176;BME280;18221;38.704;0.152;2023-10-19T05:17:44;97727.97;;;26.91;32.17
10176;BME280;18221;38.704;0.152;2023-10-19T05:20:12;97733.69;;;27.00;32.04
10176;BME280;18221;38.704;0.152;2023-10-19T05:22:42;97737.78;;;27.03;31.94
10176;BME280;18221;38.704;0.152;2023-10-19T05:25:09;97736.97;;;26.97;31.97
10176;BME280;18221;38.704;0.152;2023-10-19T05:27:38;97729.63;;;26.92;31.73
10176;BME280;18221;38.704;0.152;2023-10-19T05:30:10;97728.53;;;26.88;31.09
10176;BME280;18221;38.704;0.152;2023-10-19T05:32:38;97720.34;;;26.88;30.22
10176;BME280;18221;38.704;0.152;2023-10-19T05:35:07;97713.84;;;26.89;29.92
10176;BME280;18221;38.704;0.152;2023-10-19T05:37:40;97706.72;;;26.93;29.50
10176;BME280;18221;38.704;0.152;2023-10-19T05:40:11;97694.44;;;27.01;29.73
10176;BME280;18221;38.704;0.152;2023-10-19T05:42:41;97696.91;;;27.03;29.13
10176;BME280;18221;38.704;0.152;2023-10-19T05:45:09;97701.00;;;27.00;29.55
10176;BME280;18221;38.704;0.152;2023-10-19T05:47:39;97697.72;;;27.03;30.69
10176;BME280;18221;38.704;0.152;2023-10-19T05:50:08;97691.47;;;26.98;30.32
10176;BME280;18221;38.704;0.152;2023-10-19T05:52:36;97702.91;;;27.00;29.73
10176;BME280;18221;38.704;0.152;2023-10-19T05:55:07;97689.84;;;26.91;30.76
10176;BME280;18221;38.704;0.152;2023-10-19T05:57:35;97697.47;;;26.89;30.86
10176;BME280;18221;38.704;0.152;2023-10-19T06:00:09;97704.00;;;26.93;31.09
10176;BME280;18221;38.704;0.152;2023-10-19T06:02:44;97701.03;;;26.95;31.30
10176;BME280;18221;38.704;0.152;2023-10-19T06:05:13;97687.69;;;26.83;32.00
10176;BME280;18221;38.704;0.152;2023-10-19T06:07:43;97684.94;;;26.93;31.86
10176;BME280;18221;38.704;0.152;2023-10-19T06:10:16;97686.03;;;26.92;31.83
10176;BME280;18221;38.704;0.152;2023-10-19T06:12:45;97690.38;;;26.93;31.80
10176;BME280;18221;38.704;0.152;2023-10-19T06:15:15;97683.03;;;26.94;31.85
10176;BME280;18221;38.704;0.152;2023-10-19T06:17:44;97680.28;;;26.99;31.72
10176;BME280;18221;38.704;0.152;2023-10-19T06:20:12;97680.06;;;26.90;32.04
10176;BME280;18221;38.704;0.152;2023-10-19T06:22:51;97671.31;;;26.88;31.96
10176;BME280;18221;38.704;0.152;2023-10-19T06:25:22;97666.44;;;26.85;31.98
10176;BME280;18221;38.704;0.152;2023-10-19T06:27:51;97655.84;;;26.79;31.94
10176;BME280;18221;38.704;0.152;2023-10-19T06:30:20;97657.47;;;26.80;32.02
10176;BME280;18221;38.704;0.152;2023-10-19T06:32:51;97651.72;;;26.86;32.12
10176;BME280;18221;38.704;0.152;2023-10-19T06:35:20;97649.81;;;26.92;32.11
10176;BME280;18221;38.704;0.152;2023-10-19T06:37:49;97642.47;;;26.92;32.17
10176;BME280;18221;38.704;0.152;2023-10-19T06:40:17;97625.03;;;26.88;32.30
10176;BME280;18221;38.704;0.152;2023-10-19T06:42:47;97623.66;;;26.86;32.09
10176;BME280;18221;38.704;0.152;2023-10-19T06:45:16;97638.63;;;26.88;32.37
10176;BME280;18221;38.704;0.152;2023-10-19T06:47:48;97628.28;;;26.95;32.36
10176;BME280;18221;38.704;0.152;2023-10-19T06:50:18;97631.25;;;26.99;32.38
10176;BME280;18221;38.704;0.152;2023-10-19T06:52:47;97630.44;;;26.98;32.61
10176;BME280;18221;38.704;0.152;2023-10-19T06:55:17;97641.31;;;27.09;32.41
10176;BME280;18221;38.704;0.152;2023-10-19T06:57:49;97653.28;;;27.13;32.59
10176;BME280;18221;38.704;0.152;2023-10-19T07:00:19;97639.44;;;26.99;32.92
10176;BME280;18221;38.704;0.152;2023-10-19T07:02:49;97639.13;;;27.11;32.90
10176;BME280;18221;38.704;0.152;2023-10-19T07:05:19;97647.31;;;27.06;32.48
10176;BME280;18221;38.704;0.152;2023-10-19T07:07:49;97660.13;;;27.00;32.59
10176;BME280;18221;38.704;0.152;2023-10-19T07:10:19;97650.56;;;27.08;32.66
10176;BME280;18221;38.704;0.152;2023-10-19T07:12:53;97647.25;;;27.21;32.35
10176;BME280;18221;38.704;0.152;2023-10-19T07:15:21;97644.78;;;27.24;32.27
10176;BME280;18221;38.704;0.152;2023-10-19T07:17:52;97662.47;;;27.32;32.10
10176;BME280;18221;38.704;0.152;2023-10-19T07:20:20;97656.81;;;27.18;32.52
10176;BME280;18221;38.704;0.152;2023-10-19T07:22:56;97651.03;;;27.25;32.76
10176;BME280;18221;38.704;0.152;2023-10-19T07:25:26;97650.00;;;27.16;32.87
10176;BME280;18221;38.704;0.152;2023-10-19T07:27:56;97640.78;;;27.02;33.27
10176;BME280;18221;38.704;0.152;2023-10-19T07:30:26;97642.47;;;26.92;33.41
10176;BME280;18221;38.704;0.152;2023-10-19T07:32:54;97636.47;;;26.95;33.64
10176;BME280;18221;38.704;0.152;2023-10-19T07:35:25;97640.19;;;27.15;33.49
10176;BME280;18221;38.704;0.152;2023-10-19T07:37:54;97648.59;;;27.23;33.27
10176;BME280;18221;38.704;0.152;2023-10-19T07:40:23;97650.41;;;27.48;32.91
10176;BME280;18221;38.704;0.152;2023-10-19T07:42:52;97647.91;;;27.56;33.32
10176;BME280;18221;38.704;0.152;2023-10-19T07:45:23;97650.44;;;27.43;33.75
10176;BME280;18221;38.704;0.152;2023-10-19T07:47:51;97653.13;;;27.48;34.21
10176;BME280;18221;38.704;0.152;2023-10-19T07:50:20;97657.81;;;27.47;33.78
10176;BME280;18221;38.704;0.152;2023-10-19T07:52:51;97656.63;;;27.58;33.80
10176;BME280;18221;38.704;0.152;2023-10-19T07:55:22;97661.19;;;27.73;33.22
10176;BME280;18221;38.704;0.152;2023-10-19T07:57:51;97665.94;;;27.52;32.93
10176;BME280;18221;38.704;0.152;2023-10-19T08:00:22;97671.63;;;27.56;32.97
10176;BME280;18221;38.704;0.152;2023-10-19T08:02:52;97670.56;;;27.57;32.73
10176;BME280;18221;38.704;0.152;2023-10-19T08:05:20;97660.81;;;27.41;32.62
10176;BME280;18221;38.704;0.152;2023-10-19T08:07:48;97660.25;;;27.39;32.36
10176;BME280;18221;38.704;0.152;2023-10-19T08:10:18;97661.88;;;27.50;32.03
10176;BME280;18221;38.704;0.152;2023-10-19T08:12:48;97650.41;;;27.53;31.86
10176;BME280;18221;38.704;0.152;2023-10-19T08:15:18;97642.41;;;27.67;31.80
10176;BME280;18221;38.704;0.152;2023-10-19T08:17:49;97637.13;;;27.80;31.82
10176;BME280;18221;38.704;0.152;2023-10-19T08:20:20;97632.31;;;27.67;31.83
10176;BME280;18221;38.704;0.152;2023-10-19T08:22:51;97644.63;;;27.60;31.90
10176;BME280;18221;38.704;0.152;2023-10-19T08:25:19;97639.69;;;27.67;31.77
10176;BME280;18221;38.704;0.152;2023-10-19T08:27:47;97643.97;;;27.78;32.22
10176;BME280;18221;38.704;0.152;2023-10-19T08:30:17;97640.94;;;27.84;32.27
10176;BME280;18221;38.704;0.152;2023-10-19T08:32:47;97633.81;;;27.88;31.96
10176;BME280;18221;38.704;0.152;2023-10-19T08:35:16;97640.41;;;27.82;31.98
10176;BME280;18221;38.704;0.152;2023-10-19T08:37:47;97628.63;;;27.38;32.49
10176;BME280;18221;38.704;0.152;2023-10-19T08:40:15;97627.25;;;27.50;32.46
10176;BME280;18221;38.704;0.152;2023-10-19T08:42:45;97625.25;;;27.66;32.48
10176;BME280;18221;38.704;0.152;2023-10-19T08:45:15;97611.31;;;27.68;31.86
10176;BME280;18221;38.704;0.152;2023-10-19T08:47:54;97599.31;;;27.69;32.04
10176;BME280;18221;38.704;0.152;2023-10-19T08:50:27;97607.44;;;27.79;32.23
10176;BME280;18221;38.704;0.152;2023-10-19T08:52:58;97609.44;;;27.63;30.97
10176;BME280;18221;38.704;0.152;2023-10-19T08:55:26;97607.81;;;27.62;31.22
10176;BME280;18221;38.704;0.152;2023-10-19T08:57:54;97600.34;;;27.78;31.09
10176;BME280;18221;38.704;0.152;2023-10-19T09:00:27;97601.34;;;27.48;30.74
10176;BME280;18221;38.704;0.152;2023-10-19T09:03:02;97602.91;;;27.59;30.44
10176;BME280;18221;38.704;0.152;2023-10-19T09:05:31;97598.56;;;27.58;30.11
10176;BME280;18221;38.704;0.152;2023-10-19T09:07:59;97593.47;;;27.36;30.41
10176;BME280;18221;38.704;0.152;2023-10-19T09:10:29;97580.59;;;27.52;30.58
10176;BME280;18221;38.704;0.152;2023-10-19T09:13:01;97587.06;;;27.61;30.17
10176;BME280;18221;38.704;0.152;2023-10-19T09:15:30;97585.88;;;27.77;30.19
10176;BME280;18221;38.704;0.152;2023-10-19T09:18:14;97575.97;;;27.91;29.72
10176;BME280;18221;38.704;0.152;2023-10-19T09:20:44;97561.75;;;27.94;30.22
10176;BME280;18221;38.704;0.152;2023-10-19T09:23:24;97561.69;;;27.99;30.59
10176;BME280;18221;38.704;0.152;2023-10-19T09:25:56;97548.63;;;27.96;30.58
10176;BME280;18221;38.704;0.152;2023-10-19T09:28:24;97543.69;;;28.03;30.62
10176;BME280;18221;38.704;0.152;2023-10-19T09:30:53;97551.03;;;28.32;30.01
10176;BME280;18221;38.704;0.152;2023-10-19T09:33:23;97545.25;;;28.38;29.79
10176;BME280;18221;38.704;0.152;2023-10-19T09:35:52;97549.19;;;28.27;29.91
10176;BME280;18221;38.704;0.152;2023-10-19T09:38:22;97557.31;;;28.03;31.04
10176;BME280;18221;38.704;0.152;2023-10-19T09:40:52;97558.63;;;28.11;30.85
10176;BME280;18221;38.704;0.152;2023-10-19T09:43:28;97551.47;;;28.44;30.00
10176;BME280;18221;38.704;0.152;2023-10-19T09:46:04;97548.44;;;28.45;29.77
10176;BME280;18221;38.704;0.152;2023-10-19T09:48:40;97538.03;;;28.47;31.84
10176;BME280;18221;38.704;0.152;2023-10-19T09:51:10;97543.28;;;28.44;32.45
10176;BME280;18221;38.704;0.152;2023-10-19T09:53:40;97549.44;;;28.31;32.91
10176;BME280;18221;38.704;0.152;2023-10-19T09:56:15;97533.34;;;28.53;32.47
10176;BME280;18221;38.704;0.152;2023-10-19T09:58:48;97517.16;;;28.61;32.83
10176;BME280;18221;38.704;0.152;2023-10-19T10:01:17;97514.53;;;28.51;30.36
10176;BME280;18221;38.704;0.152;2023-10-19T10:03:50;97511.81;;;28.75;30.79
10176;BME280;18221;38.704;0.152;2023-10-19T10:06:28;97498.03;;;28.85;32.58
10176;BME280;18221;38.704;0.152;2023-10-19T10:09:00;97495.41;;;28.51;32.93
10176;BME280;18221;38.704;0.152;2023-10-19T10:11:29;97495.81;;;28.40;32.61
10176;BME280;18221;38.704;0.152;2023-10-19T10:13:58;97495.88;;;28.35;31.86
10176;BME280;18221;38.704;0.152;2023-10-19T10:16:27;97487.63;;;28.40;32.11
10176;BME280;18221;38.704;0.152;2023-10-19T10:18:59;97483.91;;;28.54;32.35
10176;BME280;18221;38.704;0.152;2023-10-19T10:21:28;97479.78;;;28.57;33.00
10176;BME280;18221;38.704;0.152;2023-10-19T10:23:58;97484.63;;;28.65;33.03
10176;BME280;18221;38.704;0.152;2023-10-19T10:26:28;97470.38;;;28.68;32.94
10176;BME280;18221;38.704;0.152;2023-10-19T10:29:13;97471.72;;;28.70;32.84
10176;BME280;18221;38.704;0.152;2023-10-19T10:31:47;97448.81;;;28.66;32.36
10176;BME280;18221;38.704;0.152;2023-10-19T10:34:44;97441.91;;;28.27;33.18
10176;BME280;18221;38.704;0.152;2023-10-19T10:37:13;97435.47;;;28.17;32.68
10176;BME280;18221;38.704;0.152;2023-10-19T10:39:41;97435.59;;;28.31;32.72
10176;BME280;18221;38.704;0.152;2023-10-19T10:42:11;97427.78;;;28.43;32.86
10176;BME280;18221;38.704;0.152;2023-10-19T10:44:41;97416.88;;;28.20;33.28
10176;BME280;18221;38.704;0.152;2023-10-19T10:47:11;97434.91;;;28.21;33.32
10176;BME280;18221;38.704;0.152;2023-10-19T10:49:53;97424.25;;;28.19;33.85
10176;BME280;18221;38.704;0.152;2023-10-19T10:52:29;97418.53;;;28.21;33.19
10176;BME280;18221;38.704;0.152;2023-10-19T10:54:59;97409.28;;;28.16;33.04
10176;BME280;18221;38.704;0.152;2023-10-19T10:57:34;97412.19;;;28.25;32.75
10176;BME280;18221;38.704;0.152;2023-10-19T11:00:07;97400.28;;;28.16;32.69
10176;BME280;18221;38.704;0.152;2023-10-19T11:02:42;97395.69;;;28.11;33.06
10176;BME280;18221;38.704;0.152;2023-10-19T11:05:14;97396.13;;;28.18;31.88
10176;BME280;18221;38.704;0.152;2023-10-19T11:08:09;97387.19;;;28.37;32.00
10176;BME280;18221;38.704;0.152;2023-10-19T11:10:40;97382.75;;;28.22;32.28
10176;BME280;18221;38.704;0.152;2023-10-19T11:13:11;97370.28;;;28.35;32.31
10176;BME280;18221;38.704;0.152;2023-10-19T11:15:49;97372.25;;;28.29;31.75
10176;BME280;18221;38.704;0.152;2023-10-19T11:18:29;97369.53;;;28.29;31.64
10176;BME280;18221;38.704;0.152;2023-10-19T11:21:02;97354.78;;;28.30;32.65
10176;BME280;18221;38.704;0.152;2023-10-19T11:23:38;97342.41;;;28.38;32.70
10176;BME280;18221;38.704;0.152;2023-10-19T11:26:07;97341.38;;;28.34;32.82
10176;BME280;18221;38.704;0.152;2023-10-19T11:28:36;97340.91;;;28.27;33.77
10176;BME280;18221;38.704;0.152;2023-10-19T11:31:15;97328.59;;;28.10;34.31
10176;BME280;18221;38.704;0.152;2023-10-19T11:34:04;97330.69;;;27.90;33.78
10176;BME280;18221;38.704;0.152;2023-10-19T11:36:34;97330.66;;;27.95;34.47
10176;BME280;18221;38.704;0.152;2023-10-19T11:39:02;97305.13;;;27.86;36.35
10176;BME280;18221;38.704;0.152;2023-10-19T11:41:37;97311.22;;;27.78;36.70
10176;BME280;18221;38.704;0.152;2023-10-19T11:44:05;97297.47;;;27.35;37.69
10176;BME280;18221;38.704;0.152;2023-10-19T11:46:35;97277.91;;;27.28;38.57
10176;BME280;18221;38.704;0.152;2023-10-19T11:49:02;97279.16;;;27.41;38.44
10176;BME280;18221;38.704;0.152;2023-10-19T11:51:31;97256.34;;;27.61;38.50
10176;BME280;18221;38.704;0.152;2023-10-19T11:54:00;97258.75;;;27.62;37.66
10176;BME280;18221;38.704;0.152;2023-10-19T11:56:28;97242.47;;;27.57;37.41
10176;BME280;18221;38.704;0.152;2023-10-19T11:58:56;97239.97;;;27.61;37.76
10176;BME280;18221;38.704;0.152;2023-10-19T12:01:24;97236.31;;;27.70;37.17
10176;BME280;18221;38.704;0.152;2023-10-19T12:03:53;97236.22;;;27.28;38.68
10176;BME280;18221;38.704;0.152;2023-10-19T12:06:21;97225.53;;;27.60;38.62
10176;BME280;18221;38.704;0.152;2023-10-19T12:08:50;97205.59;;;27.83;38.01
10176;BME280;18221;38.704;0.152;2023-10-19T12:11:19;97191.63;;;27.85;37.92
10176;BME280;18221;38.704;0.152;2023-10-19T12:13:48;97211.28;;;27.87;39.10
10176;BME280;18221;38.704;0.152;2023-10-19T12:16:16;97211.56;;;27.85;39.44
10176;BME280;18221;38.704;0.152;2023-10-19T12:18:50;97208.25;;;27.88;39.00
10176;BME280;18221;38.704;0.152;2023-10-19T12:21:18;97199.72;;;27.52;40.23
10176;BME280;18221;38.704;0.152;2023-10-19T12:23:53;97173.34;;;27.67;39.86
10176;BME280;18221;38.704;0.152;2023-10-19T12:26:24;97164.16;;;27.81;38.65
10176;BME280;18221;38.704;0.152;2023-10-19T12:28:52;97162.38;;;27.53;39.07
10176;BME280;18221;38.704;0.152;2023-10-19T12:31:21;97142.63;;;27.80;39.37
10176;BME280;18221;38.704;0.152;2023-10-19T12:33:49;97137.63;;;27.68;39.57
10176;BME280;18221;38.704;0.152;2023-10-19T12:36:17;97124.56;;;27.65;39.41
10176;BME280;18221;38.704;0.152;2023-10-19T12:38:57;97118.00;;;27.85;40.70
10176;BME280;18221;38.704;0.152;2023-10-19T12:41:30;97116.25;;;27.75;41.66
10176;BME280;18221;38.704;0.152;2023-10-19T12:44:01;97110.56;;;27.53;41.47
10176;BME280;18221;38.704;0.152;2023-10-19T12:46:35;97102.31;;;27.58;41.91
10176;BME280;18221;38.704;0.152;2023-10-19T12:49:05;97098.34;;;27.50;41.98
10176;BME280;18221;38.704;0.152;2023-10-19T12:51:35;97086.06;;;27.48;41.79
10176;BME280;18221;38.704;0.152;2023-10-19T12:54:05;97091.03;;;27.46;40.70
10176;BME280;18221;38.704;0.152;2023-10-19T12:56:38;97100.03;;;27.65;40.64
10176;BME280;18221;38.704;0.152;2023-10-19T12:59:06;97101.25;;;27.54;41.29
10176;BME280;18221;38.704;0.152;2023-10-19T13:01:34;97106.09;;;27.38;40.71
10176;BME280;18221;38.704;0.152;2023-10-19T13:04:03;97097.09;;;27.19;40.71
10176;BME280;18221;38.704;0.152;2023-10-19T13:06:40;97100.59;;;27.20;41.09
10176;BME280;18221;38.704;0.152;2023-10-19T13:09:08;97089.94;;;27.47;41.51
10176;BME280;18221;38.704;0.152;2023-10-19T13:11:38;97078.97;;;27.28;41.89
10176;BME280;18221;38.704;0.152;2023-10-19T13:14:07;97070.41;;;27.40;41.83
10176;BME280;18221;38.704;0.152;2023-10-19T13:16:36;97061.22;;;27.31;42.42
10176;BME280;18221;38.704;0.152;2023-10-19T13:19:04;97045.88;;;27.40;42.95
10176;BME280;18221;38.704;0.152;2023-10-19T13:21:39;97045.97;;;27.30;43.83
10176;BME280;18221;38.704;0.152;2023-10-19T13:24:09;97060.53;;;27.44;43.71
10176;BME280;18221;38.704;0.152;2023-10-19T13:26:38;97043.16;;;27.40;43.02
10176;BME280;18221;38.704;0.152;2023-10-19T13:29:10;97065.56;;;27.13;43.34
10176;BME280;18221;38.704;0.152;2023-10-19T13:31:38;97048.69;;;27.11;43.96
10176;BME280;18221;38.704;0.152;2023-10-19T13:34:06;97041.78;;;27.19;43.78
10176;BME280;18221;38.704;0.152;2023-10-19T13:36:36;97046.38;;;27.42;43.80
10176;BME280;18221;38.704;0.152;2023-10-19T13:39:05;97036.56;;;27.41;43.61
10176;BME280;18221;38.704;0.152;2023-10-19T13:41:40;97057.34;;;27.37;43.29
10176;BME280;18221;38.704;0.152;2023-10-19T13:44:08;97035.47;;;27.42;43.42